Time;durP1;ratioP1;P1;durP2;ratioP2;P2;SDS_P1;SDS_P2;PMS_P1;PMS_P2;Temp;Humidity;BMP_temperature;BMP_pressure;BME280_temperature;BME280_humidity;BME280_pressure;Samples;Min_cycle;Max_cycle;Signal;HPM_P1;HPM_P2
2023/06/29 00:01:07;;;;;;;7.32;3.13;;;;;;;15.09;100.00;98855.22;5056539;28;20035;-67
2023/06/29 00:03:33;;;;;;;8.20;3.28;;;;;;;14.97;100.00;98860.63;5050199;28;20318;-67
2023/06/29 00:05:59;;;;;;;5.28;2.90;;;;;;;14.85;100.00;98852.41;5082401;28;20028;-66
2023/06/29 00:08:26;;;;;;;4.50;2.97;;;;;;;14.81;100.00;98864.00;5047224;28;20031;-66
2023/06/29 00:10:53;;;;;;;3.78;2.70;;;;;;;14.74;100.00;98855.06;5055619;28;20369;-67
2023/06/29 00:13:22;;;;;;;6.72;3.17;;;;;;;14.70;100.00;98854.72;5051726;28;20546;-67
2023/06/29 00:15:50;;;;;;;4.22;2.60;;;;;;;14.80;100.00;98859.59;5061017;28;20064;-66
2023/06/29 00:18:18;;;;;;;4.22;3.00;;;;;;;14.68;100.00;98854.94;5056487;28;20036;-67
2023/06/29 00:20:44;;;;;;;7.93;3.20;;;;;;;14.67;100.00;98864.16;5054294;28;20115;-67
2023/06/29 00:23:10;;;;;;;4.43;2.80;;;;;;;14.67;100.00;98855.16;5048795;28;20033;-67
2023/06/29 00:25:35;;;;;;;5.50;3.20;;;;;;;14.65;100.00;98846.41;5071095;28;20028;-66
2023/06/29 00:28:02;;;;;;;5.95;3.05;;;;;;;14.63;100.00;98848.50;5059393;28;20032;-66
2023/06/29 00:30:28;;;;;;;4.53;2.90;;;;;;;14.54;100.00;98849.88;5048506;28;20020;-61
2023/06/29 00:32:53;;;;;;;5.88;2.70;;;;;;;14.51;100.00;98844.84;5071447;28;20357;-61
2023/06/29 00:35:19;;;;;;;5.68;2.92;;;;;;;14.47;100.00;98834.41;5062638;28;20028;-61
2023/06/29 00:37:44;;;;;;;9.63;3.00;;;;;;;14.42;100.00;98838.88;5052526;28;20032;-61
2023/06/29 00:40:11;;;;;;;6.15;3.20;;;;;;;14.45;100.00;98831.09;5042081;28;20150;-61
2023/06/29 00:42:36;;;;;;;5.10;3.15;;;;;;;14.45;100.00;98836.53;5085689;28;20036;-67
2023/06/29 00:45:03;;;;;;;13.23;3.42;;;;;;;14.43;100.00;98837.81;5062030;28;20025;-61
2023/06/29 00:47:29;;;;;;;3.30;2.67;;;;;;;14.35;100.00;98828.06;5054580;28;20476;-61
2023/06/29 00:49:55;;;;;;;4.07;3.08;;;;;;;14.30;100.00;98827.91;5063693;28;20032;-61
2023/06/29 00:52:22;;;;;;;7.30;3.50;;;;;;;14.21;100.00;98813.78;5052990;28;20021;-61
2023/06/29 00:54:48;;;;;;;6.82;3.13;;;;;;;14.17;100.00;98828.06;5069938;28;20039;-61
2023/06/29 00:57:13;;;;;;;5.20;3.40;;;;;;;14.10;100.00;98828.16;5050942;28;20163;-61
2023/06/29 00:59:38;;;;;;;5.55;3.70;;;;;;;14.07;100.00;98831.31;5054849;28;20055;-61
2023/06/29 01:02:04;;;;;;;7.28;3.47;;;;;;;14.17;100.00;98830.78;5058332;28;20036;-61
2023/06/29 01:04:32;;;;;;;6.70;3.63;;;;;;;14.18;100.00;98830.56;5061937;28;20021;-61
2023/06/29 01:07:05;;;;;;;5.85;3.80;;;;;;;14.30;100.00;98832.53;5056712;28;20029;-60
2023/06/29 01:09:31;;;;;;;7.15;3.72;;;;;;;14.24;100.00;98823.38;5051562;28;20033;-61
2023/06/29 01:12:16;;;;;;;4.38;3.50;;;;;;;14.22;100.00;98826.31;5060800;28;20108;-61
2023/06/29 01:14:44;;;;;;;7.00;3.63;;;;;;;14.11;100.00;98826.25;5063480;28;20021;-61
2023/06/29 01:17:18;;;;;;;7.03;3.50;;;;;;;14.04;100.00;98815.44;5064066;28;20106;-61
2023/06/29 01:19:47;;;;;;;7.78;4.07;;;;;;;13.90;100.00;98816.63;5058854;28;20027;-60
2023/06/29 01:22:30;;;;;;;;;;;;;;;13.89;100.00;98821.25;5060511;28;20028;-61
2023/06/29 01:24:56;;;;;;;4.30;3.28;;;;;;;13.87;100.00;98823.34;5050607;28;19971;-61
2023/06/29 01:27:21;;;;;;;6.13;3.42;;;;;;;13.86;100.00;98819.00;5066908;28;20025;-61
2023/06/29 01:29:47;;;;;;;6.38;3.70;;;;;;;13.80;100.00;98817.13;5065352;28;20023;-61
2023/06/29 01:32:14;;;;;;;5.25;3.75;;;;;;;13.81;100.00;98814.22;5053377;28;20024;-61
2023/06/29 01:34:40;;;;;;;4.63;3.50;;;;;;;13.78;100.00;98817.38;5055145;28;20021;-61
2023/06/29 01:37:16;;;;;;;5.75;3.65;;;;;;;13.87;100.00;98815.19;5055130;28;20104;-61
2023/06/29 01:39:50;;;;;;;6.30;3.75;;;;;;;13.86;100.00;98807.25;5069383;28;20111;-61
2023/06/29 01:42:17;;;;;;;9.10;4.05;;;;;;;13.79;100.00;98816.31;5060439;28;20028;-61
2023/06/29 01:44:43;;;;;;;5.88;3.83;;;;;;;13.82;100.00;98818.59;5063706;28;20024;-66
2023/06/29 01:47:10;;;;;;;6.15;3.67;;;;;;;13.80;100.00;98814.41;5050826;28;20135;-66
2023/06/29 01:49:36;;;;;;;6.25;3.50;;;;;;;13.81;100.00;98814.22;5058136;28;20066;-67
2023/06/29 01:52:03;;;;;;;6.95;3.75;;;;;;;13.78;100.00;98813.81;5064307;28;20062;-66
2023/06/29 01:54:29;;;;;;;13.73;4.15;;;;;;;13.76;100.00;98821.38;5047981;28;20483;-66
2023/06/29 01:56:55;;;;;;;7.50;3.45;;;;;;;13.64;100.00;98821.25;5055224;28;20043;-66
2023/06/29 01:59:20;;;;;;;6.88;3.60;;;;;;;13.53;100.00;98816.56;5054797;28;20106;-66
2023/06/29 02:01:46;;;;;;;4.63;3.60;;;;;;;13.46;100.00;98813.88;5057184;28;20470;-67
2023/06/29 02:04:12;;;;;;;5.40;3.92;;;;;;;13.45;100.00;98819.56;5084813;28;20032;-66
2023/06/29 02:06:37;;;;;;;5.15;4.25;;;;;;;13.41;100.00;98811.00;5063452;28;20040;-66
2023/06/29 02:09:03;;;;;;;10.23;4.13;;;;;;;13.33;100.00;98812.09;5044067;28;20380;-66
2023/06/29 02:11:29;;;;;;;11.15;4.65;;;;;;;13.42;100.00;98809.13;5073479;28;20157;-66
2023/06/29 02:13:55;;;;;;;6.20;4.65;;;;;;;13.39;100.00;98807.69;5064649;28;20036;-66
2023/06/29 02:16:20;;;;;;;6.95;4.60;;;;;;;13.37;100.00;98807.06;5074718;28;20383;-66
2023/06/29 02:18:46;;;;;;;5.03;3.55;;;;;;;13.40;100.00;98808.53;5057296;28;20029;-61
2023/06/29 02:21:12;;;;;;;6.13;3.72;;;;;;;13.43;100.00;98805.34;5053786;28;20397;-61
2023/06/29 02:23:37;;;;;;;7.70;3.45;;;;;;;13.33;100.00;98795.78;5044806;28;20391;-61
2023/06/29 02:26:03;;;;;;;6.50;4.05;;;;;;;13.27;100.00;98804.00;5080050;28;20027;-61
2023/06/29 02:28:28;;;;;;;6.10;3.78;;;;;;;13.35;100.00;98795.59;5068096;28;20161;-61
2023/06/29 02:30:53;;;;;;;7.88;4.03;;;;;;;13.25;100.00;98800.66;5061154;28;20505;-67
2023/06/29 02:33:19;;;;;;;7.47;4.43;;;;;;;13.22;100.00;98798.38;5078745;28;20029;-61
2023/06/29 02:35:44;;;;;;;9.10;4.60;;;;;;;13.10;100.00;98787.41;5043728;28;20120;-61
2023/06/29 02:38:09;;;;;;;5.22;4.22;;;;;;;13.04;100.00;98799.13;5067902;28;20052;-61
2023/06/29 02:40:35;;;;;;;5.82;4.10;;;;;;;12.93;100.00;98779.75;5065071;23;20033;-76
2023/06/29 02:43:00;;;;;;;7.72;4.03;;;;;;;12.88;100.00;98778.75;5039932;28;20021;-77
2023/06/29 02:45:25;;;;;;;4.80;4.03;;;;;;;12.94;100.00;98788.75;5033287;28;20044;-76
2023/06/29 02:47:51;;;;;;;6.00;3.85;;;;;;;12.86;100.00;98784.44;5022334;28;20025;-76
2023/06/29 02:50:16;;;;;;;4.90;4.00;;;;;;;12.74;100.00;98769.88;5030674;28;20017;-76
2023/06/29 02:52:41;;;;;;;6.63;3.92;;;;;;;12.71;100.00;98764.88;5052576;28;20112;-76
2023/06/29 02:55:07;;;;;;;5.53;4.15;;;;;;;12.90;100.00;98772.06;5049444;28;20440;-76
2023/06/29 02:57:32;;;;;;;6.05;3.70;;;;;;;12.77;100.00;98753.16;5051720;28;20029;-76
2023/06/29 02:59:57;;;;;;;6.72;3.75;;;;;;;12.89;100.00;98775.84;5051637;28;20029;-76
2023/06/29 03:02:23;;;;;;;10.98;4.25;;;;;;;12.77;100.00;98757.75;5032485;28;20025;-75
2023/06/29 03:04:48;;;;;;;7.18;3.55;;;;;;;12.75;100.00;98752.53;5047286;28;20040;-77
2023/06/29 03:07:13;;;;;;;6.53;3.90;;;;;;;12.74;100.00;98769.06;5048266;28;20043;-75
2023/06/29 03:09:39;;;;;;;6.50;3.33;;;;;;;12.73;100.00;98768.19;5049103;28;20112;-71
2023/06/29 03:12:04;;;;;;;5.75;3.47;;;;;;;12.84;100.00;98791.13;5044087;28;20028;-71
2023/06/29 03:14:30;;;;;;;9.30;3.83;;;;;;;12.82;100.00;98788.63;5051432;28;20028;-68
2023/06/29 03:16:55;;;;;;;7.63;3.80;;;;;;;12.72;100.00;98769.25;5048917;28;20032;-71
2023/06/29 03:19:20;;;;;;;5.97;3.65;;;;;;;12.69;100.00;98775.13;5027386;28;20033;-68
2023/06/29 03:21:46;;;;;;;5.22;4.03;;;;;;;12.65;100.00;98774.75;5054514;28;20102;-68
2023/06/29 03:24:11;;;;;;;5.13;4.30;;;;;;;12.69;100.00;98780.56;5050449;28;20032;-68
2023/06/29 03:26:36;;;;;;;6.75;4.00;;;;;;;12.56;100.00;98770.59;5046457;28;20021;-69
2023/06/29 03:29:01;;;;;;;6.03;4.40;;;;;;;12.59;100.00;98780.19;5050876;28;20378;-71
2023/06/29 03:31:27;;;;;;;5.45;4.03;;;;;;;12.54;100.00;98763.72;5049635;28;20028;-70
2023/06/29 03:33:52;;;;;;;7.65;4.40;;;;;;;12.63;100.00;98779.56;5066676;28;20523;-71
2023/06/29 03:36:19;;;;;;;7.72;4.50;;;;;;;12.81;100.00;98781.53;5043596;28;20026;-69
2023/06/29 03:38:44;;;;;;;7.13;4.55;;;;;;;12.83;100.00;98789.44;5047545;28;20036;-65
2023/06/29 03:41:09;;;;;;;9.48;4.68;;;;;;;12.83;100.00;98784.84;5041153;28;20033;-71
2023/06/29 03:43:35;;;;;;;7.07;4.70;;;;;;;12.86;100.00;98792.56;5051659;28;20033;-64
2023/06/29 03:46:00;;;;;;;5.68;4.00;;;;;;;12.88;100.00;98781.47;5046374;28;20033;-69
2023/06/29 03:48:28;;;;;;;8.88;4.28;;;;;;;12.90;100.00;98774.78;5050879;28;20032;-69
2023/06/29 03:50:56;;;;;;;7.53;4.38;;;;;;;13.00;100.00;98785.16;5038174;28;20386;-68
2023/06/29 03:53:21;;;;;;;9.10;4.10;;;;;;;13.06;100.00;98773.41;5050238;28;20025;-65
2023/06/29 03:55:46;;;;;;;7.93;4.38;;;;;;;13.18;100.00;98781.69;5048817;28;20112;-66
2023/06/29 03:58:12;;;;;;;5.75;4.22;;;;;;;13.21;100.00;98775.81;5049453;28;20056;-68
2023/06/29 04:00:37;;;;;;;6.60;4.00;;;;;;;13.27;100.00;98776.84;5045900;28;20032;-68
2023/06/29 04:03:02;;;;;;;5.45;3.67;;;;;;;13.23;100.00;98776.44;5050362;28;20467;-73
2023/06/29 04:05:27;;;;;;;5.22;4.38;;;;;;;13.21;100.00;98753.25;5046057;28;20035;-70
2023/06/29 04:07:53;;;;;;;5.00;3.63;;;;;;;13.25;100.00;98766.16;5042729;28;20086;-70
2023/06/29 04:10:18;;;;;;;6.80;4.13;;;;;;;13.21;100.00;98751.38;5045531;28;20029;-72
2023/06/29 04:12:44;;;;;;;11.00;4.10;;;;;;;13.31;100.00;98756.34;5045877;28;20029;-72
2023/06/29 04:15:09;;;;;;;7.65;3.78;;;;;;;13.44;100.00;98769.81;5045802;28;20025;-70
2023/06/29 04:17:34;;;;;;;9.20;3.78;;;;;;;13.45;100.00;98748.91;5050159;28;20033;-74
2023/06/29 04:20:00;;;;;;;5.85;3.83;;;;;;;13.68;100.00;98757.25;5033131;28;20108;-70
2023/06/29 04:22:25;;;;;;;8.45;3.90;;;;;;;13.81;100.00;98754.38;5047402;28;20040;-70
2023/06/29 04:24:50;;;;;;;10.60;3.95;;;;;;;13.97;100.00;98755.69;5053800;28;20427;-64
2023/06/29 04:27:16;;;;;;;7.10;3.90;;;;;;;14.03;100.00;98752.03;5057247;28;20033;-70
2023/06/29 04:29:41;;;;;;;10.35;4.00;;;;;;;14.07;100.00;98757.00;5049888;28;20025;-69
2023/06/29 04:32:07;;;;;;;6.85;4.25;;;;;;;13.98;100.00;98751.88;5040665;28;20025;-69
2023/06/29 04:34:32;;;;;;;5.30;4.05;;;;;;;13.95;100.00;98754.25;5048202;28;20056;-69
2023/06/29 04:37:01;;;;;;;6.68;4.10;;;;;;;13.87;100.00;98747.22;5029310;28;20052;-70
2023/06/29 04:39:27;;;;;;;7.80;4.95;;;;;;;13.95;100.00;98751.53;5025689;28;20397;-70
2023/06/29 04:42:01;;;;;;;6.63;4.43;;;;;;;13.84;100.00;98727.81;5049524;28;20041;-68
2023/06/29 04:44:32;;;;;;;5.63;4.10;;;;;;;14.02;100.00;98747.66;5053156;28;20028;-65
2023/06/29 04:46:59;;;;;;;8.77;4.30;;;;;;;14.10;100.00;98749.25;5047603;28;20029;-71
2023/06/29 04:49:27;;;;;;;6.63;3.63;;;;;;;14.08;100.00;98726.06;5047586;28;20108;-74
2023/06/29 04:51:55;;;;;;;5.30;4.22;;;;;;;14.19;100.00;98736.16;5035184;28;20025;-69
2023/06/29 04:54:21;;;;;;;6.00;3.93;;;;;;;14.27;100.00;98733.13;5045758;28;20026;-69
2023/06/29 04:56:47;;;;;;;8.73;4.05;;;;;;;14.49;100.00;98733.47;5035902;28;20110;-68
2023/06/29 04:59:12;;;;;;;5.10;3.65;;;;;;;14.72;100.00;98740.09;5053635;28;20021;-68
2023/06/29 05:01:37;;;;;;;6.28;3.90;;;;;;;14.86;100.00;98722.50;5050643;28;20049;-71
2023/06/29 05:04:02;;;;;;;5.10;3.55;;;;;;;15.09;100.00;98736.19;5051020;28;20222;-71
2023/06/29 05:06:28;;;;;;;8.63;3.88;;;;;;;15.20;100.00;98744.59;5054482;28;20588;-70
2023/06/29 05:08:53;;;;;;;10.32;3.85;;;;;;;15.20;100.00;98745.44;5059655;28;20084;-64
2023/06/29 05:11:18;;;;;;;8.38;3.78;;;;;;;15.12;100.00;98732.97;5048053;28;20140;-69
2023/06/29 05:13:44;;;;;;;5.80;3.90;;;;;;;15.26;100.00;98727.31;5046153;28;20029;-71
2023/06/29 05:16:09;;;;;;;7.43;3.60;;;;;;;15.38;100.00;98730.03;5056289;28;20021;-70
2023/06/29 05:18:36;;;;;;;3.95;3.50;;;;;;;15.45;100.00;98714.38;5053282;28;20683;-71
2023/06/29 05:21:03;;;;;;;10.32;3.22;;;;;;;15.77;100.00;98737.53;5043265;28;20127;-71
2023/06/29 05:23:29;;;;;;;6.10;3.17;;;;;;;16.04;100.00;98717.09;5036939;28;20033;-71
2023/06/29 05:25:54;;;;;;;9.70;3.45;;;;;;;16.38;100.00;98713.41;5023156;28;20122;-72
2023/06/29 05:28:19;;;;;;;9.57;3.20;;;;;;;16.56;100.00;98709.66;5045832;28;20474;-69
2023/06/29 05:30:45;;;;;;;7.47;3.30;;;;;;;16.72;100.00;98720.88;5054147;28;20033;-72
2023/06/29 05:33:10;;;;;;;5.50;3.33;;;;;;;16.66;100.00;98722.66;5045818;28;20029;-72
2023/06/29 05:35:35;;;;;;;8.00;3.58;;;;;;;16.51;100.00;98706.84;5050443;28;20051;-72
2023/06/29 05:38:01;;;;;;;9.23;3.40;;;;;;;16.74;100.00;98715.97;5046870;28;20674;-73
2023/06/29 05:40:26;;;;;;;8.52;3.47;;;;;;;16.95;100.00;98715.31;5057742;28;20032;-73
2023/06/29 05:42:52;;;;;;;9.05;3.35;;;;;;;17.05;100.00;98701.78;5041576;28;20029;-73
2023/06/29 05:45:17;;;;;;;6.35;3.40;;;;;;;17.37;100.00;98712.19;5052232;28;20102;-68
2023/06/29 05:47:43;;;;;;;8.95;3.13;;;;;;;17.52;100.00;98720.59;5049428;28;20029;-69
2023/06/29 05:50:08;;;;;;;8.50;3.40;;;;;;;17.61;100.00;98704.59;5049709;28;20458;-68
2023/06/29 05:52:34;;;;;;;8.40;3.10;;;;;;;17.98;100.00;98719.63;5052125;28;20426;-71
2023/06/29 05:55:00;;;;;;;5.13;3.55;;;;;;;18.14;100.00;98708.63;5050963;28;20033;-71
2023/06/29 05:57:26;;;;;;;4.38;3.15;;;;;;;18.26;100.00;98689.31;5053031;28;20028;-72
2023/06/29 05:59:51;;;;;;;5.65;3.05;;;;;;;18.42;100.00;98700.44;5053261;28;20025;-74
2023/06/29 06:02:17;;;;;;;8.15;3.00;;;;;;;18.49;100.00;98696.41;5065648;28;20032;-69
2023/06/29 06:04:42;;;;;;;6.10;2.90;;;;;;;18.54;100.00;98682.75;5052838;28;20025;-66
2023/06/29 06:07:08;;;;;;;4.78;2.70;;;;;;;18.98;100.00;98704.59;5045634;28;20032;-71
2023/06/29 06:09:33;;;;;;;7.00;2.70;;;;;;;19.16;100.00;98708.88;5046373;28;20021;-71
2023/06/29 06:11:58;;;;;;;5.55;2.83;;;;;;;19.04;100.00;98695.31;5050646;28;20463;-72
2023/06/29 06:14:24;;;;;;;4.78;2.80;;;;;;;19.68;100.00;98707.34;5029488;28;20990;-72
2023/06/29 06:16:49;;;;;;;5.82;2.60;;;;;;;19.54;100.00;98712.44;5042015;28;20033;-68
2023/06/29 06:19:14;;;;;;;5.45;3.20;;;;;;;20.20;100.00;98705.69;5031336;28;20029;-72
2023/06/29 06:21:40;;;;;;;6.55;2.55;;;;;;;20.52;100.00;98703.59;5044058;28;20033;-70
2023/06/29 06:24:05;;;;;;;5.05;2.58;;;;;;;20.70;100.00;98710.56;5044052;28;20029;-70
2023/06/29 06:26:30;;;;;;;7.88;2.80;;;;;;;20.87;100.00;98698.47;5052382;28;20552;-74
2023/06/29 06:28:56;;;;;;;7.00;2.35;;;;;;;21.14;100.00;98715.56;5049222;28;20103;-66
2023/06/29 06:31:21;;;;;;;5.80;2.28;;;;;;;21.24;100.00;98704.53;5041825;28;20036;-66
2023/06/29 06:33:47;;;;;;;8.10;2.88;;;;;;;21.28;100.00;98718.59;5042194;28;20124;-66
2023/06/29 06:36:12;;;;;;;6.90;2.80;;;;;;;21.58;100.00;98709.50;5045540;28;20024;-66
2023/06/29 06:38:37;;;;;;;6.72;2.40;;;;;;;21.75;100.00;98692.69;5041941;28;20021;-65
2023/06/29 06:41:02;;;;;;;6.75;2.55;;;;;;;22.02;100.00;98716.28;5047996;28;20040;-67
2023/06/29 06:43:28;;;;;;;11.93;2.50;;;;;;;22.40;100.00;98691.88;5033094;28;20112;-72
2023/06/29 06:45:53;;;;;;;6.53;2.40;;;;;;;22.77;100.00;98694.19;5025214;28;20036;-67
2023/06/29 06:48:19;;;;;;;5.80;2.78;;;;;;;23.33;100.00;98688.22;5048520;28;20029;-71
2023/06/29 06:50:44;;;;;;;7.88;2.30;;;;;;;23.33;100.00;98693.75;5054780;28;20028;-70
2023/06/29 06:53:09;;;;;;;7.28;2.17;;;;;;;23.78;100.00;98691.69;5049583;28;20056;-71
2023/06/29 06:55:35;;;;;;;4.60;2.25;;;;;;;24.59;100.00;98675.22;5029740;28;20039;-71
2023/06/29 06:58:00;;;;;;;18.52;2.45;;;;;;;26.22;83.61;98687.38;5041515;28;20380;-71
2023/06/29 07:00:26;;;;;;;8.13;2.05;;;;;;;29.31;66.17;98682.44;5046861;28;20025;-72
2023/06/29 07:02:53;;;;;;;8.82;1.80;;;;;;;31.83;55.25;98677.22;5055271;28;20049;-73
2023/06/29 07:05:18;;;;;;;7.43;1.85;;;;;;;31.81;51.40;98646.81;5051422;28;20108;-72
2023/06/29 07:07:46;;;;;;;5.65;2.05;;;;;;;32.07;49.54;98670.88;5042360;28;20495;-72
2023/06/29 07:10:11;;;;;;;10.07;1.95;;;;;;;33.39;47.13;98674.91;5049825;28;20021;-68
2023/06/29 07:12:37;;;;;;;6.25;1.52;;;;;;;35.43;41.35;98670.56;5032487;28;20100;-77
2023/06/29 07:15:02;;;;;;;13.60;2.30;;;;;;;35.62;40.30;98657.66;5037743;28;20021;-72
2023/06/29 07:17:28;;;;;;;7.18;1.90;;;;;;;36.04;40.04;98657.56;5049201;28;20025;-68
2023/06/29 07:19:53;;;;;;;6.60;2.15;;;;;;;36.06;38.61;98660.03;5050403;28;20116;-71
2023/06/29 07:22:20;;;;;;;6.13;1.83;;;;;;;36.05;39.14;98647.94;5050183;28;20029;-70
2023/06/29 07:24:45;;;;;;;11.32;2.03;;;;;;;35.43;38.52;98648.03;5048137;28;20025;-71
2023/06/29 07:27:10;;;;;;;8.15;1.70;;;;;;;36.23;36.35;98651.06;5017917;28;20017;-76
2023/06/29 07:29:36;;;;;;;6.85;1.63;;;;;;;35.88;38.34;98642.84;5046926;28;20031;-75
2023/06/29 07:32:01;;;;;;;8.70;1.92;;;;;;;37.37;35.68;98645.38;5049285;28;20090;-77
2023/06/29 07:34:26;;;;;;;5.72;1.58;;;;;;;37.09;35.00;98649.47;5032532;28;20120;-78
2023/06/29 07:36:52;;;;;;;9.25;1.90;;;;;;;37.74;34.49;98634.06;5050195;28;20033;-74
2023/06/29 07:39:17;;;;;;;9.10;1.85;;;;;;;38.97;32.99;98645.06;5049710;28;20483;-71
2023/06/29 07:41:43;;;;;;;5.53;1.50;;;;;;;39.19;32.30;98643.09;5050708;28;20443;-71
2023/06/29 07:44:08;;;;;;;8.25;1.60;;;;;;;39.33;32.41;98643.19;5033598;28;20021;-72
2023/06/29 07:46:33;;;;;;;9.63;1.88;;;;;;;40.30;30.75;98632.75;5042290;28;20029;-73
2023/06/29 07:48:59;;;;;;;8.73;1.80;;;;;;;39.67;32.16;98629.47;5047112;28;20502;-73
2023/06/29 07:51:25;;;;;;;12.68;1.70;;;;;;;40.03;31.11;98640.84;5050826;28;20104;-71
2023/06/29 07:53:52;;;;;;;5.38;1.42;;;;;;;40.98;30.93;98628.94;5047352;28;20037;-67
2023/06/29 07:56:17;;;;;;;11.95;1.80;;;;;;;41.88;29.67;98632.03;5040259;28;20017;-73
2023/06/29 07:58:42;;;;;;;10.80;2.08;;;;;;;41.04;29.21;98629.31;5042229;28;20033;-73
2023/06/29 08:01:08;;;;;;;8.93;1.75;;;;;;;39.79;31.90;98625.47;5050099;28;20395;-71
2023/06/29 08:03:33;;;;;;;7.90;2.13;;;;;;;41.18;29.12;98615.84;5045156;28;20064;-73
2023/06/29 08:05:59;;;;;;;9.32;1.60;;;;;;;41.22;29.77;98615.84;5042578;28;20024;-74
2023/06/29 08:08:28;;;;;;;15.77;1.58;;;;;;;42.04;28.10;98620.97;5047653;28;20048;-74
2023/06/29 08:10:53;;;;;;;13.27;1.55;;;;;;;41.32;28.39;98619.84;5032988;28;20474;-76
2023/06/29 08:13:19;;;;;;;8.15;2.05;;;;;;;41.75;28.35;98622.41;5053483;28;20044;-70
2023/06/29 08:15:44;;;;;;;10.50;1.58;;;;;;;42.90;27.60;98614.38;5047460;28;20032;-70
2023/06/29 08:18:09;;;;;;;6.00;1.43;;;;;;;43.38;26.92;98611.72;5049708;28;20025;-71
2023/06/29 08:20:34;;;;;;;9.80;1.40;;;;;;;42.84;27.02;98613.25;5035467;28;20068;-72
2023/06/29 08:23:00;;;;;;;9.30;1.43;;;;;;;44.15;26.12;98613.75;5045053;28;20037;-71
2023/06/29 08:25:25;;;;;;;5.60;1.50;;;;;;;42.80;27.23;98606.00;5047462;28;20330;-73
2023/06/29 08:27:50;;;;;;;8.80;1.43;;;;;;;39.59;29.15;98601.53;5062263;28;20282;-72
2023/06/29 08:30:16;;;;;;;6.30;1.40;;;;;;;35.45;32.62;98600.66;5056854;28;20275;-72
2023/06/29 08:32:43;;;;;;;2.65;1.10;;;;;;;34.55;33.71;98612.06;5053783;28;20021;-73
2023/06/29 08:35:08;;;;;;;7.13;1.48;;;;;;;33.76;35.47;98604.56;5051893;28;20032;-72
2023/06/29 08:37:34;;;;;;;3.17;1.38;;;;;;;36.65;33.15;98596.53;5038233;28;20037;-72
2023/06/29 08:39:59;;;;;;;5.47;1.35;;;;;;;37.82;31.20;98595.41;5031188;28;20124;-71
2023/06/29 08:42:24;;;;;;;3.00;1.27;;;;;;;38.27;30.88;98601.81;5033238;28;20029;-70
2023/06/29 08:44:50;;;;;;;3.20;1.10;;;;;;;38.28;30.83;98594.94;5033194;28;20071;-69
2023/06/29 08:47:16;;;;;;;1.63;1.10;;;;;;;38.23;30.97;98592.47;5046525;28;20057;-69
2023/06/29 08:49:42;;;;;;;1.80;1.10;;;;;;;37.76;30.99;98596.97;5053718;28;20071;-70
2023/06/29 08:52:13;;;;;;;4.53;1.30;;;;;;;38.24;30.21;98597.75;5044113;28;20025;-75
2023/06/29 08:54:39;;;;;;;6.13;0.93;;;;;;;38.86;29.65;98605.38;5048222;28;20123;-70
2023/06/29 08:57:05;;;;;;;4.15;1.30;;;;;;;39.87;28.32;98604.41;5051156;28;20060;-71
2023/06/29 08:59:32;;;;;;;3.25;1.35;;;;;;;41.08;27.80;98591.19;5052088;28;20111;-70
2023/06/29 09:02:00;;;;;;;3.05;1.00;;;;;;;40.56;28.07;98582.47;5028748;28;20029;-70
2023/06/29 09:04:26;;;;;;;9.25;2.35;;;;;;;39.94;28.41;98595.13;5047862;28;20032;-73
2023/06/29 09:06:55;;;;;;;3.90;1.05;;;;;;;40.35;28.22;98576.84;5058400;28;20032;-74
2023/06/29 09:09:21;;;;;;;2.95;1.20;;;;;;;38.41;29.72;98593.44;5049269;28;20745;-74
2023/06/29 09:11:47;;;;;;;4.78;1.40;;;;;;;36.19;31.77;98576.97;5047902;28;20033;-73
2023/06/29 09:14:12;;;;;;;3.53;1.40;;;;;;;35.81;31.64;98598.47;5053141;28;20025;-73
2023/06/29 09:16:58;;;;;;;2.95;1.10;;;;;;;36.57;31.10;98586.38;5053383;28;20029;-74
2023/06/29 09:19:25;;;;;;;3.42;1.27;;;;;;;35.99;31.81;98588.31;5053598;28;20025;-73
2023/06/29 09:21:51;;;;;;;2.50;1.08;;;;;;;38.07;29.76;98584.31;5051895;28;20021;-73
2023/06/29 09:24:20;;;;;;;2.10;1.08;;;;;;;39.04;28.59;98577.19;5050913;28;20029;-73
2023/06/29 09:26:49;;;;;;;3.35;1.33;;;;;;;39.44;28.71;98580.91;5043887;28;20032;-74
2023/06/29 09:29:14;;;;;;;3.53;1.33;;;;;;;39.01;28.13;98573.13;5048351;28;20029;-75
2023/06/29 09:31:40;;;;;;;2.63;1.00;;;;;;;37.60;29.55;98574.63;5053496;28;20115;-79
2023/06/29 09:34:19;;;;;;;2.93;1.10;;;;;;;37.86;29.64;98573.63;5043774;28;20032;-78
2023/06/29 09:36:46;;;;;;;5.65;1.05;;;;;;;39.74;28.27;98554.22;5039253;28;20279;-77
2023/06/29 09:39:15;;;;;;;2.40;1.00;;;;;;;40.38;27.29;98553.38;5043834;28;20040;-77
2023/06/29 09:41:46;;;;;;;3.22;1.00;;;;;;;39.99;27.31;98560.72;5036572;28;20176;-78
2023/06/29 09:44:16;;;;;;;4.07;1.00;;;;;;;39.05;28.86;98558.19;5037042;28;20029;-81
2023/06/29 09:46:42;;;;;;;2.08;1.05;;;;;;;39.73;27.16;98559.09;5052652;28;20048;-83
2023/06/29 09:49:08;;;;;;;3.35;1.27;;;;;;;39.09;27.62;98561.81;5035446;28;20021;-80
2023/06/29 09:51:34;;;;;;;3.25;1.10;;;;;;;39.47;28.23;98573.66;5054243;28;20600;-71
2023/06/29 09:54:02;;;;;;;2.38;0.80;;;;;;;40.10;27.69;98572.03;5055260;28;20111;-72
2023/06/29 09:56:30;;;;;;;2.10;1.00;;;;;;;39.72;28.16;98563.13;5030777;28;20111;-72
2023/06/29 09:58:56;;;;;;;2.35;1.30;;;;;;;39.06;28.44;98549.28;5053317;28;20082;-72
2023/06/29 10:01:22;;;;;;;3.10;1.23;;;;;;;37.20;29.79;98559.31;5030086;28;20080;-72
2023/06/29 10:03:47;;;;;;;2.03;1.00;;;;;;;36.07;30.78;98565.91;5049822;28;20552;-72
2023/06/29 10:06:17;;;;;;;4.07;1.17;;;;;;;36.01;31.30;98564.59;5050960;28;20029;-72
2023/06/29 10:08:46;;;;;;;1.73;1.00;;;;;;;35.95;31.73;98559.28;5047881;28;20028;-72
2023/06/29 10:11:12;;;;;;;2.15;1.17;;;;;;;36.45;31.26;98552.78;5042802;28;20032;-72
2023/06/29 10:13:45;;;;;;;3.08;1.20;;;;;;;36.03;31.20;98562.22;5046783;28;20040;-72
2023/06/29 10:16:12;;;;;;;2.03;1.00;;;;;;;38.77;29.71;98549.16;5029886;28;20422;-72
2023/06/29 10:18:41;;;;;;;2.03;1.00;;;;;;;40.71;27.48;98552.84;5049646;28;20021;-71
2023/06/29 10:21:07;;;;;;;1.77;0.95;;;;;;;42.78;25.68;98557.22;5030252;28;20025;-72
2023/06/29 10:23:34;;;;;;;3.50;1.10;;;;;;;41.87;25.92;98550.03;5047461;28;20068;-71
2023/06/29 10:26:01;;;;;;;3.47;1.30;;;;;;;40.84;26.85;98563.72;5052763;28;20120;-71
2023/06/29 10:28:26;;;;;;;3.42;1.20;;;;;;;38.73;27.58;98554.03;5044314;28;20095;-71
2023/06/29 10:30:58;;;;;;;2.67;1.13;;;;;;;38.47;28.29;98546.63;5033304;28;20394;-71
2023/06/29 10:33:23;;;;;;;2.80;1.10;;;;;;;37.52;29.34;98539.91;5047306;28;20071;-72
2023/06/29 10:36:01;;;;;;;2.35;1.00;;;;;;;37.63;29.50;98542.84;5052526;28;20021;-71
2023/06/29 10:38:30;;;;;;;2.97;1.10;;;;;;;37.93;30.09;98539.81;5029280;28;20512;-71
2023/06/29 10:40:55;;;;;;;2.70;1.00;;;;;;;40.00;27.68;98536.00;5024707;28;20040;-71
2023/06/29 10:43:20;;;;;;;4.23;1.10;;;;;;;42.15;25.77;98537.63;5052012;28;20040;-71
2023/06/29 10:45:46;;;;;;;5.17;1.27;;;;;;;42.53;26.40;98541.28;5048381;28;20363;-72
2023/06/29 10:48:15;;;;;;;3.50;1.60;;;;;;;43.03;25.56;98528.44;5042161;28;20672;-71
2023/06/29 10:50:46;;;;;;;3.95;1.10;;;;;;;43.54;25.03;98532.91;5051934;28;20630;-71
2023/06/29 10:53:16;;;;;;;2.60;0.95;;;;;;;42.46;24.97;98533.63;5049313;28;20029;-70
2023/06/29 10:55:52;;;;;;;4.50;1.17;;;;;;;42.50;25.31;98530.75;5027371;28;20028;-70
2023/06/29 10:58:18;;;;;;;2.33;1.08;;;;;;;44.12;25.40;98523.38;5039228;28;20056;-70
2023/06/29 11:00:43;;;;;;;1.98;0.70;;;;;;;42.88;25.72;98517.25;5048110;28;20064;-70
2023/06/29 11:03:09;;;;;;;3.97;0.90;;;;;;;41.14;27.36;98515.75;5048873;28;20065;-70
2023/06/29 11:05:35;;;;;;;3.55;0.90;;;;;;;38.88;29.13;98520.94;5042071;28;20036;-71
2023/06/29 11:08:01;;;;;;;1.42;0.85;;;;;;;37.40;29.81;98514.78;5025662;28;20033;-71
2023/06/29 11:10:26;;;;;;;2.72;1.38;;;;;;;36.24;30.45;98508.22;5052860;28;20494;-71
2023/06/29 11:12:55;;;;;;;2.60;1.25;;;;;;;35.17;32.37;98527.81;5051676;28;20386;-72
2023/06/29 11:15:21;;;;;;;4.93;1.20;;;;;;;35.51;32.91;98511.13;5056630;28;20025;-73
2023/06/29 11:17:51;;;;;;;3.17;1.38;;;;;;;34.96;33.10;98519.78;5049992;28;20055;-70
2023/06/29 11:20:18;;;;;;;3.38;1.20;;;;;;;33.67;33.34;98522.59;5048266;28;20067;-72
2023/06/29 11:22:45;;;;;;;2.22;1.08;;;;;;;34.15;33.54;98517.69;5046554;28;20440;-70
2023/06/29 11:25:15;;;;;;;5.50;1.63;;;;;;;32.86;35.23;98516.44;5065406;28;20021;-70